Skip to main content

NOAA/GLERL Met Station at Muskegon, MI

Previous 3 Hours (2 minute increments)
See also Previous 5 Days (top of hour)
Jump down to Data
Switch to [English][Metric]
Zoom: Click and drag, Pan: shift-click and drag, Unzoom: double-click, Unzoom All






See also 1-day windrose plot


NOAA/GLERL Met Station at Muskegon, MI

Previous 3 Hours (2 minute increments)
See also Previous 5 Days (top of hour only)
Jump up to Graphs
Switch to [English][Metric]
                  Wind  Wind  Wind   Air   Dew   Rel     Sta   PAR
                   Spd   Gst   Dir  Temp    Pt   Hum    Pres uE/m2/
YYYY-MM-DD   EST   kts   kts   deg     F     F     %   in Hg   sec
2018-12-11 09:40   9.9  11.1   333  29.8  25.3  82.9   29.39    72
2018-12-11 09:38  10.3  12.4   328  29.8  25.4  83.2   29.39    70
2018-12-11 09:36  12.2  15.0   325  29.8  25.4  83.5   29.39    62
2018-12-11 09:34   9.7  12.2   323  29.8  25.4  83.4   29.39    58
2018-12-11 09:32   9.9  12.2   329  29.8  25.3  83.1   29.39    57
2018-12-11 09:30   9.7  11.3   340  30.0  25.7  83.6   29.39    55
2018-12-11 09:28  10.9  12.1   320  30.0  25.7  83.8   29.38    53
2018-12-11 09:26  10.7  12.2   319  30.0  25.4  82.6   29.38    50
2018-12-11 09:24   9.3  10.3   312  30.0  25.2  82.1   29.38    50
2018-12-11 09:22  11.5  14.2   303  30.0  25.2  81.9   29.38    52
2018-12-11 09:20  13.0  14.2   299  30.2  25.4  82.0   29.38    57
2018-12-11 09:18  12.6  14.2   306  30.0  25.0  81.4   29.38    62
2018-12-11 09:16  13.4  15.0   301  30.0  24.9  81.0   29.38    69
2018-12-11 09:14  13.0  15.7   307  30.0  25.1  81.7   29.38    73
2018-12-11 09:12  10.3  13.0   301  29.8  24.9  81.6   29.38    68
2018-12-11 09:10  11.7  13.0   304  29.8  24.7  80.8   29.38    65
2018-12-11 09:08  14.0  16.7   311  29.8  24.6  80.6   29.38    59
2018-12-11 09:06  11.3  15.4   323  29.8  24.4  80.0   29.38    51
2018-12-11 09:04  11.3  13.4   316  29.8  24.4  79.9   29.38    53
2018-12-11 09:02  14.0  16.1   316  29.8  24.6  80.7   29.38    53
2018-12-11 09:00  14.6  19.4   313  29.8  24.7  81.0   29.38    53
2018-12-11 08:58  12.4  15.7   309  30.0  24.7  80.4   29.38    47
2018-12-11 08:56  14.2  15.6   314  30.0  24.7  80.2   29.38    41
2018-12-11 08:54  15.6  17.5   319  30.0  24.9  81.1   29.38    37
2018-12-11 08:52  14.6  17.7   327  30.0  25.0  81.5   29.38    31
2018-12-11 08:50  12.6  13.8   326  30.0  25.0  81.5   29.38    26
2018-12-11 08:48  13.6  15.4   322  30.2  25.4  82.1   29.38    24
2018-12-11 08:46  14.0  16.5   323  30.2  25.5  82.4   29.38    23
2018-12-11 08:44  13.0  14.4   321  30.0  25.0  81.4   29.38    22
2018-12-11 08:42  13.8  15.2   321  30.2  25.3  81.9   29.38    20
2018-12-11 08:40  13.4  15.4   318  30.2  25.3  81.7   29.38    19
2018-12-11 08:38  13.0  16.7   322  30.2  25.1  81.0   29.38    20
2018-12-11 08:36  14.4  15.9   303  30.2  25.0  80.7   29.38    22
2018-12-11 08:34  12.6  15.2   310  30.2  24.9  80.3   29.37    28
2018-12-11 08:32  12.1  13.6   333  30.2  24.7  79.7   29.37    27
2018-12-11 08:30  13.8  15.7   319  30.4  24.9  79.7   29.37    20
2018-12-11 08:28  13.6  15.6   313  30.6  25.2  80.4   29.37    17
2018-12-11 08:26  12.1  14.4   313  30.4  24.8  79.4   29.37    17
2018-12-11 08:24  14.4  15.9   303  30.4  24.9  80.0   29.37    20
2018-12-11 08:22  14.6  16.1   306  30.6  25.3  80.6   29.37    18
2018-12-11 08:20  13.8  15.9   313  30.4  25.1  80.6   29.37    14
2018-12-11 08:18  12.4  14.6   321  30.6  25.1  79.9   29.37    11
2018-12-11 08:16  14.0  15.2   323  30.6  25.1  79.8   29.37    10
2018-12-11 08:14  13.4  15.2   315  30.6  25.0  79.5   29.37    10
2018-12-11 08:12  14.8  16.7   317  30.6  25.0  79.6   29.37    10
2018-12-11 08:10  12.6  17.9   315  30.6  25.1  79.8   29.37     8
2018-12-11 08:08  11.3  12.4   312  30.6  24.9  79.3   29.37     8
2018-12-11 08:06  12.8  14.8   304  30.7  25.1  79.5   29.37     7
2018-12-11 08:04  14.0  15.9   309  30.7  25.1  79.5   29.37     6
2018-12-11 08:02  14.2  15.7   315  30.7  25.0  79.1   29.37     6
2018-12-11 08:00  14.6  16.7   303  30.9  25.2  79.0   29.37     5
2018-12-11 07:58  13.4  16.7   294  30.9  25.4  79.6   29.37     4
2018-12-11 07:56  12.8  15.0   305  30.7  24.9  78.8   29.37     4
2018-12-11 07:54  12.6  14.4   299  30.7  24.9  78.8   29.37     4
2018-12-11 07:52  13.8  15.2   302  30.7  24.8  78.4   29.37     3
2018-12-11 07:50  14.4  17.5   311  30.7  24.7  78.2   29.37     3
2018-12-11 07:48  14.6  16.3   316  30.7  24.9  78.8   29.37     2
2018-12-11 07:46  12.2  15.7   315  30.7  24.9  78.6   29.37     2
2018-12-11 07:44  13.2  16.1   314  30.9  25.0  78.6   29.37     2
2018-12-11 07:42  16.3  18.9   309  30.9  25.1  78.7   29.37     2
2018-12-11 07:40  13.4  16.9   313  30.9  25.4  79.6   29.37     2
2018-12-11 07:38  11.9  14.0   312  30.9  25.0  78.5   29.37     2
2018-12-11 07:36  14.2  16.7   318  31.1  25.2  78.5   29.37     2
2018-12-11 07:34  15.2  16.3   313  31.1  25.3  79.0   29.37     2
2018-12-11 07:32  14.0  16.9   308  31.1  25.5  79.5   29.37     2
2018-12-11 07:30  13.6  15.2   315  31.1  25.5  79.4   29.37     2
2018-12-11 07:28  13.4  14.6   311  30.9  24.6  77.3   29.37     2
2018-12-11 07:26  14.0  16.3   311  31.1  25.2  78.5   29.37     2
2018-12-11 07:24  14.8  16.3   308  31.1  25.1  78.1   29.37     2
2018-12-11 07:22  14.0  15.9   306  31.3  25.2  77.9   29.37     2
2018-12-11 07:20  15.0  16.5   318  31.1  25.2  78.5   29.37     2
2018-12-11 07:18  15.2  17.1   320  31.1  25.4  79.2   29.37     2
2018-12-11 07:16  13.8  14.6   323  31.3  25.5  78.9   29.37     2
2018-12-11 07:14  15.0  15.9   319  31.3  25.5  79.0   29.37     2
2018-12-11 07:12  15.6  18.3   315  31.5  25.8  79.3   29.37     2
2018-12-11 07:10  13.8  16.3   318  31.5  25.6  78.8   29.37     2
2018-12-11 07:08  15.0  17.5   318  31.5  25.8  79.2   29.37     2
2018-12-11 07:06  14.0  15.9   311  31.6  25.7  78.4   29.37     2
2018-12-11 07:04  14.4  17.9   307  31.6  25.5  77.7   29.37     2
2018-12-11 07:02  15.6  17.7   306  31.6  25.3  77.3   29.37     2
2018-12-11 07:00  16.9  18.5   304  31.5  25.3  77.6   29.37     2
2018-12-11 06:58  14.8  17.1   314  31.6  25.6  78.1   29.37     2
2018-12-11 06:56  15.2  17.5   309  31.6  25.5  77.9   29.37     2
2018-12-11 06:54  15.2  16.5   302  31.6  25.5  77.7   29.37     2
2018-12-11 06:52  15.0  18.1   309  31.6  25.6  78.0   29.37     2
2018-12-11 06:50  14.0  16.7   304  31.6  25.7  78.4   29.37     2
2018-12-11 06:48  14.8  17.3   314  31.8  26.1  79.3   29.37     2
2018-12-11 06:46  15.0  17.9   302  31.8  25.8  78.3   29.37     2
2018-12-11 06:44  15.4  17.1   305  31.8  25.6  77.7   29.37     2
2018-12-11 06:42  15.7  18.1   304  31.8  25.5  77.2   29.37     2
2018-12-11 06:40  16.7  18.5   304  31.8  25.6  77.7   29.37     2